Time;durP1;ratioP1;P1;durP2;ratioP2;P2;SDS_P1;SDS_P2;PMS_P1;PMS_P2;Temp;Humidity;BMP_temperature;BMP_pressure;BME280_temperature;BME280_humidity;BME280_pressure;Samples;Min_cycle;Max_cycle;Signal;HPM_P1;HPM_P2
2021/06/21 00:02:23;;;;;;;3.03;1.88;;;23.50;70.00;;;;;;5062556;28;20032;-63
2021/06/21 00:04:53;;;;;;;5.13;2.08;;;23.50;70.70;;;;;;5055100;28;20048;-63
2021/06/21 00:07:19;;;;;;;2.78;2.03;;;23.40;70.20;;;;;;5054849;28;20112;-63
2021/06/21 00:09:45;;;;;;;5.70;2.00;;;23.40;70.20;;;;;;5054062;28;20048;-64
2021/06/21 00:12:14;;;;;;;2.85;1.92;;;23.40;70.20;;;;;;5055607;28;20032;-63
2021/06/21 00:14:40;;;;;;;2.45;1.83;;;23.50;70.40;;;;;;5046517;28;20456;-63
2021/06/21 00:17:06;;;;;;;2.05;1.63;;;23.40;70.40;;;;;;5053962;28;20428;-63
2021/06/21 00:19:32;;;;;;;2.33;1.80;;;23.40;70.40;;;;;;5054564;28;20025;-63
2021/06/21 00:21:58;;;;;;;2.35;1.85;;;23.40;70.30;;;;;;5054461;28;20041;-63
2021/06/21 00:24:24;;;;;;;2.08;1.95;;;23.40;70.10;;;;;;5054319;28;20525;-63
2021/06/21 00:26:51;;;;;;;2.25;2.05;;;23.40;70.10;;;;;;5055442;28;20024;-63
2021/06/21 00:29:17;;;;;;;2.40;2.10;;;23.40;70.40;;;;;;5053085;28;20029;-63
2021/06/21 00:31:44;;;;;;;2.05;1.90;;;23.30;70.30;;;;;;5054346;28;20112;-63
2021/06/21 00:34:10;;;;;;;3.03;1.80;;;23.30;70.60;;;;;;5054519;28;20021;-63
2021/06/21 00:36:36;;;;;;;2.17;1.98;;;23.30;70.60;;;;;;5053097;28;20024;-63
2021/06/21 00:39:03;;;;;;;3.25;2.42;;;23.30;71.00;;;;;;5044552;28;20388;-63
2021/06/21 00:41:29;;;;;;;3.80;1.92;;;23.30;70.90;;;;;;5053315;28;20063;-63
2021/06/21 00:43:55;;;;;;;3.05;1.80;;;23.30;71.30;;;;;;5054820;28;20396;-63
2021/06/21 00:46:21;;;;;;;4.85;1.90;;;23.20;71.20;;;;;;5047488;28;20083;-63
2021/06/21 00:48:47;;;;;;;2.97;1.98;;;23.30;71.40;;;;;;5054295;28;20376;-63
2021/06/21 00:51:12;;;;;;;4.30;2.05;;;23.20;71.30;;;;;;5054133;28;20537;-63
2021/06/21 00:53:38;;;;;;;3.03;2.00;;;23.20;71.20;;;;;;5053168;28;20078;-63
2021/06/21 00:56:05;;;;;;;1.98;1.75;;;23.20;71.50;;;;;;5054138;28;20369;-63
2021/06/21 00:58:31;;;;;;;3.88;2.05;;;23.20;71.70;;;;;;5052523;28;20061;-63
2021/06/21 01:00:56;;;;;;;3.30;2.00;;;23.20;71.70;;;;;;5065069;28;20377;-63
2021/06/21 01:03:22;;;;;;;4.63;2.28;;;23.20;71.60;;;;;;5052928;28;20145;-63
2021/06/21 01:05:48;;;;;;;2.85;2.03;;;23.20;71.80;;;;;;5052166;28;20025;-63
2021/06/21 01:08:14;;;;;;;2.08;1.65;;;23.10;71.70;;;;;;5052271;28;20032;-63
2021/06/21 01:10:45;;;;;;;2.22;1.92;;;23.10;71.90;;;;;;5051232;28;20457;-63
2021/06/21 01:13:42;;;;;;;4.35;2.28;;;23.10;71.70;;;;;;5050542;28;20125;-63
2021/06/21 01:16:24;;;;;;;2.28;2.00;;;23.10;71.40;;;;;;5054507;28;20029;-63
2021/06/21 01:18:54;;;;;;;2.38;2.17;;;23.10;71.50;;;;;;5049713;28;20055;-63
2021/06/21 01:21:58;;;;;;;2.65;2.13;;;23.10;71.60;;;;;;5052688;28;20041;-63
2021/06/21 01:24:54;;;;;;;2.42;1.90;;;23.10;71.60;;;;;;5049331;28;20120;-63
2021/06/21 01:27:33;;;;;;;5.93;1.90;;;23.00;71.60;;;;;;5053614;28;20021;-63
2021/06/21 01:30:08;;;;;;;3.70;2.13;;;23.00;71.60;;;;;;5052239;28;20033;-63
2021/06/21 01:32:45;;;;;;;2.03;1.83;;;23.00;71.80;;;;;;5053294;28;20013;-63
2021/06/21 01:35:35;;;;;;;2.33;2.00;;;23.00;71.70;;;;;;5054262;28;20021;-63
2021/06/21 01:38:04;;;;;;;4.38;2.20;;;22.90;71.70;;;;;;5048416;28;20484;-63
2021/06/21 01:40:43;;;;;;;3.15;2.10;;;22.90;72.00;;;;;;5051869;28;20029;-63
2021/06/21 01:43:11;;;;;;;3.28;2.55;;;22.90;72.30;;;;;;5053377;28;20504;-63
2021/06/21 01:45:38;;;;;;;2.90;2.30;;;22.90;72.30;;;;;;5053123;28;20025;-63
2021/06/21 01:48:06;;;;;;;4.43;2.38;;;22.90;72.30;;;;;;5048845;28;20031;-63
2021/06/21 01:50:32;;;;;;;3.95;2.60;;;22.90;72.40;;;;;;5053644;28;20017;-63
2021/06/21 01:53:22;;;;;;;4.18;2.58;;;22.80;72.40;;;;;;5052003;28;20108;-63
2021/06/21 01:56:37;;;;;;;3.38;2.40;;;22.80;72.20;;;;;;5047604;28;20092;-63
2021/06/21 01:59:06;;;;;;;3.00;2.40;;;22.80;72.40;;;;;;5037693;28;20037;-63
2021/06/21 02:01:33;;;;;;;4.20;2.70;;;22.80;72.30;;;;;;5050335;28;20036;-63
2021/06/21 02:04:01;;;;;;;3.28;2.45;;;22.80;72.50;;;;;;5064328;28;20064;-63
2021/06/21 02:06:29;;;;;;;3.58;2.67;;;22.80;72.70;;;;;;5053032;28;20032;-63
2021/06/21 02:08:56;;;;;;;3.40;2.45;;;22.80;72.50;;;;;;5053340;28;20021;-63
2021/06/21 02:11:26;;;;;;;4.53;2.50;;;22.80;72.70;;;;;;5051442;28;20088;-63
2021/06/21 02:13:52;;;;;;;2.65;2.20;;;22.80;72.90;;;;;;5051848;28;20025;-63
2021/06/21 02:16:19;;;;;;;3.22;2.30;;;22.80;73.10;;;;;;5052048;28;20033;-63
2021/06/21 02:18:48;;;;;;;3.45;2.28;;;22.80;73.00;;;;;;5052579;28;20130;-63
2021/06/21 02:21:15;;;;;;;3.40;2.30;;;22.90;73.70;;;;;;5052906;28;20123;-63
2021/06/21 02:23:42;;;;;;;2.40;2.20;;;22.90;73.10;;;;;;5051585;28;20043;-63
2021/06/21 02:26:08;;;;;;;4.40;2.30;;;22.90;73.40;;;;;;5053464;28;20464;-63
2021/06/21 02:28:35;;;;;;;5.07;2.33;;;22.90;73.20;;;;;;5051481;28;20025;-63
2021/06/21 02:31:04;;;;;;;2.17;1.88;;;22.90;72.90;;;;;;5043166;28;20017;-63
2021/06/21 02:33:30;;;;;;;2.10;1.90;;;22.90;73.00;;;;;;5052170;28;20036;-63
2021/06/21 02:35:55;;;;;;;2.45;1.85;;;23.00;72.90;;;;;;5056855;28;20025;-63
2021/06/21 02:38:22;;;;;;;2.95;2.10;;;23.00;72.80;;;;;;5051021;28;20460;-63
2021/06/21 02:40:48;;;;;;;2.40;2.20;;;23.00;72.60;;;;;;5055369;28;20021;-62
2021/06/21 02:43:14;;;;;;;2.95;2.50;;;23.00;72.20;;;;;;5052570;28;20036;-62
2021/06/21 02:45:40;;;;;;;2.40;2.00;;;23.10;72.50;;;;;;5050547;28;20033;-63
2021/06/21 02:48:08;;;;;;;2.10;2.00;;;23.10;72.50;;;;;;5047866;28;20032;-63
2021/06/21 02:50:36;;;;;;;2.13;1.95;;;23.20;72.10;;;;;;5052883;28;20418;-63
2021/06/21 02:53:02;;;;;;;3.08;2.40;;;23.20;72.20;;;;;;5052030;28;20032;-63
2021/06/21 02:55:44;;;;;;;2.78;2.28;;;23.20;72.30;;;;;;5052052;28;20464;-62
2021/06/21 02:58:14;;;;;;;2.78;2.00;;;23.30;72.30;;;;;;5045545;28;20043;-63
2021/06/21 03:00:41;;;;;;;2.57;2.13;;;23.30;72.30;;;;;;5051576;28;20024;-63
2021/06/21 03:03:10;;;;;;;1.95;1.83;;;23.30;71.90;;;;;;5052056;28;20032;-63
2021/06/21 03:05:38;;;;;;;2.22;1.83;;;23.40;71.90;;;;;;5052325;28;20413;-63
2021/06/21 03:08:05;;;;;;;3.05;2.20;;;23.40;71.70;;;;;;5054621;28;20021;-63
2021/06/21 03:10:32;;;;;;;2.50;2.13;;;23.50;71.60;;;;;;5052645;28;20078;-63
2021/06/21 03:12:59;;;;;;;3.00;2.08;;;23.50;71.60;;;;;;5048562;28;20021;-63
2021/06/21 03:15:27;;;;;;;3.47;2.15;;;23.50;71.40;;;;;;5045464;28;20074;-63
2021/06/21 03:17:54;;;;;;;4.60;2.30;;;23.60;71.70;;;;;;5052547;28;20028;-63
2021/06/21 03:20:21;;;;;;;2.63;2.17;;;23.60;72.20;;;;;;5051618;28;20366;-63
2021/06/21 03:22:48;;;;;;;2.60;2.38;;;23.70;72.10;;;;;;5052017;28;20036;-63
2021/06/21 03:25:14;;;;;;;3.03;2.20;;;23.80;72.00;;;;;;5053549;28;20064;-63
2021/06/21 03:27:40;;;;;;;4.05;2.35;;;23.80;71.90;;;;;;5053705;28;20429;-63
2021/06/21 03:30:12;;;;;;;10.65;2.50;;;23.90;72.00;;;;;;5055814;28;20029;-63
2021/06/21 03:32:41;;;;;;;3.13;2.10;;;24.00;71.80;;;;;;5071430;28;20095;-63
2021/06/21 03:35:09;;;;;;;2.97;2.22;;;24.10;72.20;;;;;;5051350;28;20018;-63
2021/06/21 03:37:36;;;;;;;4.30;2.22;;;24.40;72.70;;;;;;5042882;28;20104;-63
2021/06/21 03:40:03;;;;;;;2.22;2.03;;;24.70;71.90;;;;;;5048582;28;20064;-63
2021/06/21 03:42:29;;;;;;;3.47;2.13;;;25.10;71.10;;;;;;5059414;28;20029;-63
2021/06/21 03:44:54;;;;;;;2.85;2.15;;;25.50;69.20;;;;;;5046445;28;20033;-63
2021/06/21 03:47:20;;;;;;;4.82;2.15;;;26.00;68.20;;;;;;5043722;28;20034;-63
2021/06/21 03:49:48;;;;;;;3.60;2.50;;;26.60;67.30;;;;;;5053358;28;20021;-60
2021/06/21 03:52:15;;;;;;;1.73;1.63;;;27.20;65.30;;;;;;5054063;28;20017;-60
2021/06/21 03:54:41;;;;;;;2.53;2.03;;;27.80;63.80;;;;;;5054471;28;20755;-60
2021/06/21 03:57:07;;;;;;;7.32;2.10;;;28.40;62.90;;;;;;5055843;28;20048;-60
2021/06/21 03:59:33;;;;;;;3.65;2.15;;;29.00;60.90;;;;;;5053168;28;20021;-60
2021/06/21 04:01:59;;;;;;;2.42;2.00;;;29.70;59.70;;;;;;5054088;28;20032;-60
2021/06/21 04:04:26;;;;;;;3.13;1.85;;;30.30;59.10;;;;;;5055380;28;20353;-60
2021/06/21 04:06:52;;;;;;;3.28;2.00;;;30.90;57.60;;;;;;5040341;28;20448;-60
2021/06/21 04:09:18;;;;;;;3.20;2.03;;;31.30;56.40;;;;;;5053666;28;20025;-60
2021/06/21 04:11:44;;;;;;;2.30;2.10;;;31.50;55.30;;;;;;5052311;28;20152;-60
2021/06/21 04:14:11;;;;;;;3.60;2.25;;;31.80;54.50;;;;;;5050243;28;20143;-60
2021/06/21 04:16:37;;;;;;;3.00;2.08;;;32.00;54.00;;;;;;5055100;28;20056;-60
2021/06/21 04:19:02;;;;;;;3.22;2.05;;;32.40;53.70;;;;;;5048006;28;20114;-60
2021/06/21 04:21:28;;;;;;;3.13;1.95;;;32.80;53.30;;;;;;5044190;28;20119;-60
2021/06/21 04:23:55;;;;;;;2.13;1.65;;;33.20;52.80;;;;;;5054353;28;20086;-60
2021/06/21 04:26:21;;;;;;;5.90;2.20;;;33.60;52.20;;;;;;5060655;28;20550;-60
2021/06/21 04:28:47;;;;;;;3.05;1.98;;;34.00;51.60;;;;;;5051797;28;20093;-60
2021/06/21 04:31:13;;;;;;;2.78;2.05;;;34.50;51.40;;;;;;5055365;28;20400;-60
2021/06/21 04:33:38;;;;;;;2.17;1.88;;;34.90;50.40;;;;;;5043836;28;20029;-60
2021/06/21 04:36:04;;;;;;;3.55;1.88;;;35.30;49.90;;;;;;5049216;28;20029;-60
2021/06/21 04:38:30;;;;;;;3.50;2.10;;;35.80;49.00;;;;;;5049583;28;20025;-60
2021/06/21 04:40:56;;;;;;;3.20;1.90;;;36.10;48.30;;;;;;5055804;28;20035;-60
2021/06/21 04:43:21;;;;;;;2.35;2.15;;;36.40;48.00;;;;;;5063979;28;20099;-61
2021/06/21 04:45:47;;;;;;;2.33;1.80;;;36.70;47.20;;;;;;5050261;28;20026;-61
2021/06/21 04:48:13;;;;;;;2.50;1.65;;;36.90;46.60;;;;;;5050054;28;20017;-61
2021/06/21 04:50:40;;;;;;;2.83;2.08;;;37.10;46.50;;;;;;5060632;28;20021;-61
2021/06/21 04:53:11;;;;;;;2.20;2.00;;;37.20;46.00;;;;;;5054017;28;20032;-60
2021/06/21 04:55:37;;;;;;;5.78;2.40;;;37.30;45.60;;;;;;5053563;28;20033;-60
2021/06/21 04:58:03;;;;;;;2.70;2.10;;;37.50;45.60;;;;;;5047719;28;20457;-60
2021/06/21 05:00:28;;;;;;;4.40;2.00;;;37.80;45.40;;;;;;5050848;28;20227;-60
2021/06/21 05:02:54;;;;;;;2.97;2.40;;;38.00;45.20;;;;;;5053196;28;20029;-61
2021/06/21 05:05:21;;;;;;;3.15;2.08;;;38.20;44.70;;;;;;5052774;28;20415;-61
2021/06/21 05:07:48;;;;;;;3.08;2.15;;;38.60;44.60;;;;;;5053101;28;20025;-61
2021/06/21 05:10:15;;;;;;;1.98;1.88;;;38.90;44.40;;;;;;5053369;28;20475;-61
2021/06/21 05:12:42;;;;;;;1.92;1.77;;;39.20;43.90;;;;;;5053014;28;20029;-61
2021/06/21 05:15:08;;;;;;;2.17;1.90;;;39.30;43.40;;;;;;5051649;28;20028;-61
2021/06/21 05:17:34;;;;;;;3.00;2.10;;;39.40;42.90;;;;;;5057473;28;20021;-61
2021/06/21 05:19:59;;;;;;;2.33;2.00;;;39.40;42.70;;;;;;5055741;28;20029;-61
2021/06/21 05:22:25;;;;;;;2.97;2.35;;;39.30;42.30;;;;;;5053699;28;20031;-61
2021/06/21 05:24:51;;;;;;;2.25;2.05;;;39.10;42.20;;;;;;5053112;28;20055;-61
2021/06/21 05:27:16;;;;;;;3.15;2.08;;;38.60;42.30;;;;;;5053467;28;20448;-61
2021/06/21 05:29:42;;;;;;;4.15;2.05;;;38.10;43.00;;;;;;5054069;28;20031;-61
2021/06/21 05:32:08;;;;;;;3.53;2.22;;;37.40;43.80;;;;;;5053270;28;20021;-61
2021/06/21 05:34:34;;;;;;;2.38;2.15;;;36.70;44.50;;;;;;5054028;28;20025;-61
2021/06/21 05:36:59;;;;;;;5.72;2.80;;;36.00;45.10;;;;;;5050524;28;20107;-61
2021/06/21 05:39:25;;;;;;;2.92;2.40;;;35.30;46.00;;;;;;5051612;28;20435;-61
2021/06/21 05:41:51;;;;;;;3.58;2.25;;;34.70;46.60;;;;;;5053167;28;20036;-61
2021/06/21 05:44:16;;;;;;;2.65;2.17;;;34.10;47.30;;;;;;5089534;28;20465;-61
2021/06/21 05:46:42;;;;;;;2.40;2.20;;;33.50;48.20;;;;;;5052812;28;20043;-60
2021/06/21 05:49:08;;;;;;;4.57;2.83;;;33.00;48.90;;;;;;5054420;28;20036;-60
2021/06/21 05:51:33;;;;;;;2.80;2.50;;;32.60;49.70;;;;;;5052248;28;20013;-60
2021/06/21 05:53:59;;;;;;;5.25;2.35;;;32.20;50.50;;;;;;5049864;28;20064;-63
2021/06/21 05:56:25;;;;;;;4.35;2.80;;;31.80;51.00;;;;;;5054273;28;20558;-63
2021/06/21 05:58:50;;;;;;;3.38;2.65;;;31.50;51.70;;;;;;5058398;28;20029;-63
2021/06/21 06:01:16;;;;;;;3.50;2.70;;;31.20;52.20;;;;;;5053171;28;20021;-63
2021/06/21 06:03:42;;;;;;;3.33;2.75;;;30.90;52.70;;;;;;5046377;28;20485;-63
2021/06/21 06:06:08;;;;;;;3.10;2.45;;;30.60;53.00;;;;;;5051230;28;20028;-63
2021/06/21 06:08:34;;;;;;;5.00;2.90;;;30.50;53.60;;;;;;5044259;28;20028;-63
2021/06/21 06:11:00;;;;;;;3.28;2.80;;;30.30;54.10;;;;;;5050271;28;20377;-63
2021/06/21 06:13:26;;;;;;;4.13;2.58;;;30.10;54.70;;;;;;5048188;28;20021;-63
2021/06/21 06:15:52;;;;;;;4.43;2.90;;;30.00;54.90;;;;;;5041650;28;20021;-63
2021/06/21 06:18:18;;;;;;;5.18;2.50;;;29.80;55.20;;;;;;5046341;28;20029;-63
2021/06/21 06:20:44;;;;;;;2.60;2.40;;;29.70;55.40;;;;;;5047506;28;20048;-63
2021/06/21 06:23:09;;;;;;;3.25;2.55;;;29.60;55.80;;;;;;5052056;28;20051;-63
2021/06/21 06:25:38;;;;;;;4.60;3.10;;;29.50;56.10;;;;;;5051999;28;20037;-63
2021/06/21 06:28:05;;;;;;;2.47;2.30;;;29.40;56.30;;;;;;5045379;28;20044;-63
2021/06/21 06:30:31;;;;;;;3.42;2.60;;;29.30;56.60;;;;;;5041766;28;20021;-63
2021/06/21 06:32:57;;;;;;;3.35;2.75;;;29.20;56.90;;;;;;5044763;28;20041;-63
2021/06/21 06:35:23;;;;;;;3.05;2.72;;;29.10;57.20;;;;;;5044269;28;20060;-63
2021/06/21 06:37:49;;;;;;;5.68;3.22;;;29.10;57.20;;;;;;5042400;28;20094;-63
2021/06/21 06:40:16;;;;;;;2.83;2.53;;;28.90;57.20;;;;;;5041078;28;20473;-63
2021/06/21 06:42:43;;;;;;;3.30;2.65;;;28.80;57.50;;;;;;5043295;28;20043;-63
2021/06/21 06:45:09;;;;;;;5.78;2.60;;;28.80;57.70;;;;;;5038141;28;20065;-63
2021/06/21 06:47:35;;;;;;;4.13;2.50;;;28.60;57.60;;;;;;5036975;28;20112;-63
2021/06/21 06:50:01;;;;;;;3.70;2.90;;;28.60;57.60;;;;;;5040100;28;20517;-63
2021/06/21 06:52:27;;;;;;;2.80;2.25;;;28.50;58.30;;;;;;5041568;28;20021;-63
2021/06/21 06:57:39;;;;;;;5.03;2.75;;;28.50;58.90;;;;;;5036618;28;20036;-63
2021/06/21 07:00:11;;;;;;;3.17;2.88;;;28.40;59.40;;;;;;5041615;28;20067;-63
2021/06/21 07:02:36;;;;;;;3.33;2.83;;;28.40;58.90;;;;;;5039474;28;20037;-63
2021/06/21 07:05:06;;;;;;;3.30;3.00;;;28.30;59.00;;;;;;5044022;28;20029;-63
2021/06/21 07:07:31;;;;;;;6.53;2.92;;;28.30;58.90;;;;;;5042406;28;20097;-64
2021/06/21 07:09:57;;;;;;;3.72;2.80;;;28.30;59.30;;;;;;5048552;28;20115;-63
2021/06/21 07:12:23;;;;;;;5.13;2.85;;;28.20;59.20;;;;;;5046989;28;20017;-63
2021/06/21 07:14:49;;;;;;;4.68;2.75;;;28.10;59.50;;;;;;5042956;28;20083;-63
2021/06/21 07:17:14;;;;;;;4.68;2.83;;;28.10;60.00;;;;;;5042998;28;20029;-63
2021/06/21 07:19:41;;;;;;;5.82;3.03;;;28.10;60.20;;;;;;5038793;28;20036;-63
2021/06/21 07:22:07;;;;;;;4.30;3.00;;;28.10;60.20;;;;;;5040844;28;20052;-63
2021/06/21 07:24:33;;;;;;;4.40;2.75;;;28.00;60.20;;;;;;5044267;28;20503;-63
2021/06/21 07:26:59;;;;;;;5.55;3.20;;;27.90;60.20;;;;;;5047679;28;20048;-63
2021/06/21 07:29:26;;;;;;;5.35;3.67;;;27.90;60.10;;;;;;5040949;28;20065;-63
2021/06/21 07:31:51;;;;;;;3.75;3.17;;;27.80;60.10;;;;;;5040291;28;20057;-63
2021/06/21 07:34:17;;;;;;;7.18;3.20;;;27.70;60.10;;;;;;5042726;28;20108;-63
2021/06/21 07:36:43;;;;;;;5.95;3.20;;;27.50;60.70;;;;;;5048077;28;20028;-63
2021/06/21 07:39:10;;;;;;;6.10;3.10;;;27.40;61.00;;;;;;5044871;28;20045;-63
2021/06/21 07:41:36;;;;;;;7.93;3.28;;;27.30;61.30;;;;;;5040565;28;20113;-63
2021/06/21 07:44:02;;;;;;;4.93;3.20;;;27.20;61.20;;;;;;5043575;28;20025;-63
2021/06/21 07:46:28;;;;;;;4.57;3.00;;;27.20;61.70;;;;;;5043192;28;20022;-63
2021/06/21 07:48:54;;;;;;;3.28;2.60;;;27.10;61.80;;;;;;5040761;28;20024;-63
2021/06/21 07:51:21;;;;;;;4.68;3.22;;;27.10;62.30;;;;;;5038850;28;20041;-63
2021/06/21 07:53:50;;;;;;;5.03;3.08;;;27.00;62.40;;;;;;5038338;28;20113;-63
2021/06/21 07:56:17;;;;;;;2.80;2.50;;;27.00;62.90;;;;;;5040238;28;22288;-63
2021/06/21 07:58:42;;;;;;;4.50;3.17;;;27.00;62.60;;;;;;5034454;28;20104;-63
2021/06/21 08:01:12;;;;;;;5.20;2.85;;;27.00;62.30;;;;;;5041982;28;20045;-63
2021/06/21 08:03:38;;;;;;;4.25;2.60;;;27.00;62.50;;;;;;5038957;28;20029;-63
2021/06/21 08:06:06;;;;;;;3.33;2.95;;;26.80;62.70;;;;;;5041895;28;20512;-63
2021/06/21 08:08:33;;;;;;;3.90;3.00;;;26.80;63.40;;;;;;5039804;28;20143;-63
2021/06/21 08:10:59;;;;;;;4.10;3.08;;;26.70;63.30;;;;;;5042648;28;20025;-63
2021/06/21 08:13:24;;;;;;;4.03;3.28;;;26.70;63.30;;;;;;5043595;28;20029;-63
2021/06/21 08:15:51;;;;;;;4.80;2.90;;;26.70;63.50;;;;;;5043530;28;20112;-63
2021/06/21 08:18:17;;;;;;;7.43;3.13;;;26.70;63.20;;;;;;5040366;28;20040;-63
2021/06/21 08:20:43;;;;;;;6.95;3.33;;;26.70;63.00;;;;;;5045918;28;20378;-63
2021/06/21 08:23:11;;;;;;;8.63;5.90;;;26.70;63.20;;;;;;5035064;28;20033;-63
2021/06/21 08:25:37;;;;;;;6.68;4.80;;;26.70;64.10;;;;;;5038816;28;20041;-63
2021/06/21 08:28:04;;;;;;;5.43;4.28;;;26.70;64.00;;;;;;5043388;28;20037;-63
2021/06/21 08:30:30;;;;;;;6.00;3.83;;;26.70;64.40;;;;;;5039774;28;20029;-63
2021/06/21 08:32:56;;;;;;;5.30;3.50;;;26.70;64.60;;;;;;5042735;28;20033;-63
2021/06/21 08:35:21;;;;;;;4.18;3.38;;;26.80;64.40;;;;;;5041966;28;20036;-63
2021/06/21 08:37:47;;;;;;;6.53;3.50;;;26.80;64.50;;;;;;5039347;28;20033;-63
2021/06/21 08:40:13;;;;;;;4.25;3.40;;;26.90;64.80;;;;;;5045622;28;20029;-63
2021/06/21 08:42:39;;;;;;;3.78;2.78;;;26.90;64.60;;;;;;5042557;28;20521;-63
2021/06/21 08:45:07;;;;;;;4.28;3.15;;;26.90;64.40;;;;;;5042253;28;20076;-63
2021/06/21 08:47:33;;;;;;;4.68;3.55;;;26.90;64.40;;;;;;5037442;28;20041;-63
2021/06/21 08:50:01;;;;;;;3.80;3.50;;;26.90;64.50;;;;;;5037802;28;20025;-63
2021/06/21 08:52:26;;;;;;;4.07;3.40;;;26.90;64.50;;;;;;5033701;28;20074;-63
2021/06/21 08:54:53;;;;;;;7.78;3.72;;;26.80;64.20;;;;;;5038345;28;20136;-63
2021/06/21 08:57:20;;;;;;;7.45;4.90;;;26.70;64.50;;;;;;5037517;28;20060;-63
2021/06/21 08:59:46;;;;;;;3.50;3.20;;;26.70;65.30;;;;;;5033508;28;20021;-63
2021/06/21 09:02:13;;;;;;;8.45;3.78;;;26.60;65.40;;;;;;5035505;28;20038;-63
2021/06/21 09:04:40;;;;;;;7.93;4.70;;;26.60;66.20;;;;;;5036715;28;20024;-63
2021/06/21 09:07:19;;;;;;;8.20;4.10;;;26.60;66.70;;;;;;5037195;28;20030;-63
2021/06/21 09:09:45;;;;;;;4.78;3.95;;;26.70;66.30;;;;;;5038999;28;20029;-62
2021/06/21 09:12:11;;;;;;;8.15;3.55;;;26.70;66.10;;;;;;5036636;28;20335;-63
2021/06/21 09:14:38;;;;;;;6.72;3.88;;;26.70;66.40;;;;;;5034401;28;20037;-63
2021/06/21 09:17:09;;;;;;;4.78;3.67;;;26.70;66.40;;;;;;5032629;28;20580;-63
2021/06/21 09:19:44;;;;;;;5.72;3.50;;;26.70;66.80;;;;;;5035346;28;20346;-63
2021/06/21 09:22:31;;;;;;;4.25;3.53;;;26.70;67.00;;;;;;5035846;28;20077;-63
2021/06/21 09:24:58;;;;;;;5.88;4.10;;;26.60;66.70;;;;;;5032110;28;20029;-63
2021/06/21 09:27:24;;;;;;;5.00;3.42;;;26.60;67.00;;;;;;5033617;28;20033;-63
2021/06/21 09:29:52;;;;;;;6.90;3.92;;;26.60;67.20;;;;;;5033895;28;20214;-63
2021/06/21 09:32:19;;;;;;;7.97;4.30;;;26.60;67.40;;;;;;5030245;28;20032;-63
2021/06/21 09:34:45;;;;;;;6.03;3.72;;;26.60;67.70;;;;;;5032355;28;20397;-63
2021/06/21 09:37:16;;;;;;;6.63;4.05;;;26.60;67.40;;;;;;5036288;28;20783;-63
2021/06/21 09:39:44;;;;;;;5.80;3.63;;;26.60;67.20;;;;;;5034202;28;20116;-63
2021/06/21 09:42:23;;;;;;;4.30;3.72;;;26.60;67.50;;;;;;5031247;28;20798;-63
2021/06/21 09:44:52;;;;;;;6.88;4.00;;;26.50;67.70;;;;;;5033179;28;20140;-63
2021/06/21 09:47:23;;;;;;;5.18;3.80;;;26.50;67.70;;;;;;5038171;28;20123;-63
2021/06/21 09:50:16;;;;;;;5.53;3.53;;;26.50;67.70;;;;;;5033816;28;20472;-63
2021/06/21 09:52:50;;;;;;;4.68;3.50;;;26.40;67.90;;;;;;5036727;28;20100;-63
2021/06/21 09:55:37;;;;;;;5.28;3.33;;;26.40;68.00;;;;;;5034390;28;20490;-63
2021/06/21 09:58:10;;;;;;;5.90;3.78;;;26.40;68.80;;;;;;5036849;28;20064;-63
2021/06/21 10:00:38;;;;;;;5.68;3.28;;;26.30;68.30;;;;;;5034837;28;20025;-63
2021/06/21 10:03:06;;;;;;;6.28;3.70;;;26.20;68.50;;;;;;5033691;28;20043;-63
2021/06/21 10:05:32;;;;;;;7.45;4.15;;;26.20;68.00;;;;;;5032790;28;20040;-63
2021/06/21 10:07:57;;;;;;;7.50;3.97;;;26.10;68.30;;;;;;5033961;28;20073;-63
2021/06/21 10:10:23;;;;;;;6.45;3.60;;;26.10;68.60;;;;;;5035421;28;20072;-63
2021/06/21 10:12:50;;;;;;;6.93;4.00;;;26.10;69.00;;;;;;5034381;28;20563;-63
2021/06/21 10:15:16;;;;;;;4.50;3.80;;;26.10;69.20;;;;;;5030936;28;20056;-63
2021/06/21 10:17:42;;;;;;;5.18;3.60;;;26.10;68.90;;;;;;5032138;28;20043;-63
2021/06/21 10:20:09;;;;;;;7.15;3.63;;;26.10;68.40;;;;;;5032311;28;20041;-63
2021/06/21 10:22:36;;;;;;;5.03;3.75;;;26.10;67.70;;;;;;5030563;28;20045;-63
2021/06/21 10:25:04;;;;;;;4.88;3.53;;;26.10;67.90;;;;;;5034214;28;20037;-63
2021/06/21 10:27:30;;;;;;;4.93;3.22;;;26.10;68.10;;;;;;5030404;28;20751;-63
2021/06/21 10:29:56;;;;;;;5.35;4.03;;;26.20;68.00;;;;;;5033808;28;20037;-63
2021/06/21 10:32:26;;;;;;;6.57;3.60;;;26.20;67.80;;;;;;5038878;28;20025;-63
2021/06/21 10:34:52;;;;;;;5.53;3.75;;;26.20;67.90;;;;;;5036184;28;20041;-63
2021/06/21 10:37:22;;;;;;;10.23;4.47;;;26.20;68.70;;;;;;5039005;28;20044;-63
2021/06/21 10:39:50;;;;;;;4.20;3.78;;;26.20;68.20;;;;;;5037515;28;20032;-63
2021/06/21 10:42:17;;;;;;;5.95;4.00;;;26.20;68.40;;;;;;5034845;28;20029;-63
2021/06/21 10:44:54;;;;;;;7.35;4.38;;;26.30;68.80;;;;;;5035851;28;20036;-63
2021/06/21 10:47:28;;;;;;;6.85;4.20;;;26.30;68.60;;;;;;5036640;28;20037;-63
2021/06/21 10:50:19;;;;;;;8.35;4.63;;;26.30;68.60;;;;;;5032501;28;20104;-63
2021/06/21 10:52:53;;;;;;;;;;;26.30;69.40;;;;;;5035812;28;20116;-63
2021/06/21 10:55:21;;;;;;;6.22;4.28;;;26.30;68.80;;;;;;5034875;28;20383;-63
2021/06/21 10:57:51;;;;;;;6.88;4.72;;;26.30;68.10;;;;;;5026012;28;20029;-63
2021/06/21 11:00:20;;;;;;;7.18;4.90;;;26.30;68.20;;;;;;5034272;28;20036;-63
2021/06/21 11:02:46;;;;;;;7.38;4.93;;;26.30;68.30;;;;;;5032346;28;20037;-63
2021/06/21 11:05:30;;;;;;;6.90;4.75;;;26.30;68.50;;;;;;5034335;28;20040;-63
2021/06/21 11:08:23;;;;;;;7.50;5.18;;;26.40;68.20;;;;;;5030482;28;20029;-63
2021/06/21 11:10:52;;;;;;;12.43;6.00;;;26.40;68.10;;;;;;5029402;28;20543;-63
2021/06/21 11:13:33;;;;;;;12.55;5.90;;;26.30;68.20;;;;;;5028730;28;20042;-63
2021/06/21 11:16:20;;;;;;;9.63;5.65;;;26.40;68.40;;;;;;5028931;28;20021;-63
2021/06/21 11:18:49;;;;;;;11.02;4.95;;;26.40;68.10;;;;;;5029905;28;20083;-63
2021/06/21 11:21:20;;;;;;;10.15;5.53;;;26.40;68.10;;;;;;5029187;28;21328;-63
2021/06/21 11:23:49;;;;;;;6.95;5.40;;;26.40;68.40;;;;;;5028692;28;20060;-63
2021/06/21 11:26:15;;;;;;;8.40;5.70;;;26.40;68.30;;;;;;5034052;28;20028;-63
2021/06/21 11:28:42;;;;;;;8.68;5.82;;;26.50;69.00;;;;;;5035904;28;20146;-63
2021/06/21 11:31:28;;;;;;;13.10;5.78;;;26.50;69.10;;;;;;5034392;28;20030;-63
2021/06/21 11:33:57;;;;;;;12.23;6.45;;;26.50;69.20;;;;;;5032506;28;20058;-63
2021/06/21 11:36:46;;;;;;;10.20;6.60;;;26.50;69.60;;;;;;5033572;28;20036;-63
2021/06/21 11:39:24;;;;;;;11.25;5.53;;;26.50;69.30;;;;;;5035896;28;20025;-63
2021/06/21 11:42:04;;;;;;;9.90;5.60;;;26.60;69.50;;;;;;5032678;28;20025;-63
2021/06/21 11:47:24;;;;;;;10.90;6.05;;;26.60;69.40;;;;;;5037387;28;20034;-63
2021/06/21 11:49:53;;;;;;;8.90;5.03;;;26.50;68.50;;;;;;5039638;28;20088;-63
2021/06/21 11:52:19;;;;;;;9.23;6.05;;;26.50;68.90;;;;;;5039955;28;20029;-63
2021/06/21 11:54:45;;;;;;;7.13;5.28;;;26.50;69.10;;;;;;5033961;28;21806;-63
2021/06/21 11:57:12;;;;;;;7.10;5.25;;;26.50;68.70;;;;;;5037056;28;20104;-63
2021/06/21 11:59:40;;;;;;;9.55;5.53;;;26.50;68.60;;;;;;5039964;28;20041;-63
2021/06/21 12:02:15;;;;;;;7.95;5.47;;;26.50;69.20;;;;;;5045716;28;20032;-63
2021/06/21 12:04:43;;;;;;;7.45;5.28;;;26.60;68.80;;;;;;5034045;28;20505;-63
2021/06/21 12:07:09;;;;;;;9.85;6.07;;;26.60;68.80;;;;;;5040734;28;20103;-63
2021/06/21 12:09:54;;;;;;;9.00;6.47;;;26.60;69.00;;;;;;5036755;28;20029;-63
2021/06/21 12:12:25;;;;;;;6.88;4.75;;;26.60;68.70;;;;;;5036290;28;20053;-63
2021/06/21 12:14:51;;;;;;;;;;;26.60;68.30;;;;;;5036324;28;20041;-63
2021/06/21 12:17:22;;;;;;;7.15;4.95;;;26.60;68.00;;;;;;5043726;28;20309;-63
2021/06/21 12:20:07;;;;;;;7.78;5.10;;;26.60;68.30;;;;;;5035367;28;20029;-63
2021/06/21 12:22:34;;;;;;;9.27;5.85;;;26.60;68.30;;;;;;5037169;28;20160;-63
2021/06/21 12:25:00;;;;;;;7.47;5.32;;;26.60;68.80;;;;;;5035280;28;20552;-63
2021/06/21 12:27:26;;;;;;;9.45;5.35;;;26.60;68.60;;;;;;5036242;28;20389;-63
2021/06/21 12:29:52;;;;;;;7.45;5.30;;;26.60;68.30;;;;;;5037855;28;20033;-63
2021/06/21 12:32:19;;;;;;;7.57;5.00;;;26.60;67.90;;;;;;5036809;28;20036;-63
2021/06/21 12:34:55;;;;;;;6.38;4.60;;;26.70;67.90;;;;;;5036195;28;20087;-63
2021/06/21 12:37:22;;;;;;;8.32;5.20;;;26.70;68.20;;;;;;5044459;28;20033;-63
2021/06/21 12:39:52;;;;;;;9.13;5.35;;;26.70;68.70;;;;;;5041348;28;20037;-63
2021/06/21 12:42:19;;;;;;;9.57;6.07;;;26.70;69.10;;;;;;5038789;28;20033;-63
2021/06/21 12:44:46;;;;;;;10.45;6.00;;;26.70;69.90;;;;;;5037706;28;20516;-63
2021/06/21 12:47:19;;;;;;;8.23;5.30;;;26.70;70.10;;;;;;5033844;28;20028;-63
2021/06/21 12:49:46;;;;;;;7.68;5.60;;;26.70;70.30;;;;;;5039485;28;20033;-63
2021/06/21 12:52:12;;;;;;;8.88;5.68;;;26.70;70.70;;;;;;5034820;28;20114;-63
2021/06/21 12:54:38;;;;;;;6.70;5.55;;;26.70;71.20;;;;;;5036536;28;20037;-63
2021/06/21 12:57:04;;;;;;;7.47;5.90;;;26.70;71.30;;;;;;5041771;28;20040;-63
2021/06/21 12:59:36;;;;;;;6.57;4.95;;;26.70;71.30;;;;;;5041506;28;20044;-63
2021/06/21 13:02:04;;;;;;;12.38;6.15;;;26.70;71.70;;;;;;5040673;28;20752;-63